sensor_id;sensor_type;location;lat;lon;timestamp;P1;durP1;ratioP1;P2;durP2;ratioP2
16246;SDS011;8231;50.866;7.944;2024-01-11T00:00:44;24.93;;;18.03;;
16246;SDS011;8231;50.866;7.944;2024-01-11T00:03:13;18.90;;;14.83;;
16246;SDS011;8231;50.866;7.944;2024-01-11T00:05:41;35.73;;;32.10;;
16246;SDS011;8231;50.866;7.944;2024-01-11T00:08:12;213.47;;;199.73;;
16246;SDS011;8231;50.866;7.944;2024-01-11T00:10:40;24.43;;;13.27;;
16246;SDS011;8231;50.866;7.944;2024-01-11T00:13:08;21.73;;;12.73;;
16246;SDS011;8231;50.866;7.944;2024-01-11T00:15:37;69.00;;;64.07;;
16246;SDS011;8231;50.866;7.944;2024-01-11T00:18:05;145.23;;;136.13;;
16246;SDS011;8231;50.866;7.944;2024-01-11T00:20:34;183.50;;;170.77;;
16246;SDS011;8231;50.866;7.944;2024-01-11T00:23:02;19.70;;;13.83;;
16246;SDS011;8231;50.866;7.944;2024-01-11T00:25:32;61.10;;;56.57;;
16246;SDS011;8231;50.866;7.944;2024-01-11T00:28:00;91.80;;;85.23;;
16246;SDS011;8231;50.866;7.944;2024-01-11T00:30:28;73.20;;;68.30;;
16246;SDS011;8231;50.866;7.944;2024-01-11T00:32:57;25.13;;;13.43;;
16246;SDS011;8231;50.866;7.944;2024-01-11T00:35:25;14.63;;;11.50;;
16246;SDS011;8231;50.866;7.944;2024-01-11T00:37:53;20.10;;;12.13;;
16246;SDS011;8231;50.866;7.944;2024-01-11T00:40:21;20.33;;;12.70;;
16246;SDS011;8231;50.866;7.944;2024-01-11T00:42:51;37.47;;;34.47;;
16246;SDS011;8231;50.866;7.944;2024-01-11T00:45:19;20.60;;;13.63;;
16246;SDS011;8231;50.866;7.944;2024-01-11T00:47:47;21.50;;;14.83;;
16246;SDS011;8231;50.866;7.944;2024-01-11T00:50:15;140.40;;;130.97;;
16246;SDS011;8231;50.866;7.944;2024-01-11T00:52:43;24.43;;;14.87;;
16246;SDS011;8231;50.866;7.944;2024-01-11T00:55:12;21.13;;;13.47;;
16246;SDS011;8231;50.866;7.944;2024-01-11T00:57:40;21.07;;;13.53;;
16246;SDS011;8231;50.866;7.944;2024-01-11T01:00:11;33.53;;;30.33;;
16246;SDS011;8231;50.866;7.944;2024-01-11T01:02:41;22.50;;;14.43;;
16246;SDS011;8231;50.866;7.944;2024-01-11T01:05:09;23.33;;;14.53;;
16246;SDS011;8231;50.866;7.944;2024-01-11T01:07:38;21.40;;;15.47;;
16246;SDS011;8231;50.866;7.944;2024-01-11T01:10:06;20.73;;;13.50;;
16246;SDS011;8231;50.866;7.944;2024-01-11T01:12:35;15.00;;;12.20;;
16246;SDS011;8231;50.866;7.944;2024-01-11T01:15:04;17.83;;;12.47;;
16246;SDS011;8231;50.866;7.944;2024-01-11T01:17:34;26.30;;;23.67;;
16246;SDS011;8231;50.866;7.944;2024-01-11T01:20:01;39.60;;;35.67;;
16246;SDS011;8231;50.866;7.944;2024-01-11T01:22:30;23.80;;;13.97;;
16246;SDS011;8231;50.866;7.944;2024-01-11T01:24:58;19.47;;;16.20;;
16246;SDS011;8231;50.866;7.944;2024-01-11T01:27:27;20.60;;;14.67;;
16246;SDS011;8231;50.866;7.944;2024-01-11T01:29:55;18.73;;;14.33;;
16246;SDS011;8231;50.866;7.944;2024-01-11T01:32:23;46.40;;;43.00;;
16246;SDS011;8231;50.866;7.944;2024-01-11T01:34:53;128.43;;;119.43;;
16246;SDS011;8231;50.866;7.944;2024-01-11T01:37:21;118.07;;;110.57;;
16246;SDS011;8231;50.866;7.944;2024-01-11T01:39:49;132.23;;;122.43;;
16246;SDS011;8231;50.866;7.944;2024-01-11T01:42:17;110.73;;;103.30;;
16246;SDS011;8231;50.866;7.944;2024-01-11T01:44:45;25.50;;;22.37;;
16246;SDS011;8231;50.866;7.944;2024-01-11T01:47:14;118.47;;;109.63;;
16246;SDS011;8231;50.866;7.944;2024-01-11T01:49:44;17.73;;;10.00;;
16246;SDS011;8231;50.866;7.944;2024-01-11T01:52:15;23.67;;;14.07;;
16246;SDS011;8231;50.866;7.944;2024-01-11T01:54:44;19.97;;;17.60;;
16246;SDS011;8231;50.866;7.944;2024-01-11T01:57:12;30.23;;;27.17;;
16246;SDS011;8231;50.866;7.944;2024-01-11T01:59:42;19.53;;;11.90;;
16246;SDS011;8231;50.866;7.944;2024-01-11T02:02:12;90.47;;;84.27;;
16246;SDS011;8231;50.866;7.944;2024-01-11T02:04:42;21.77;;;17.10;;
16246;SDS011;8231;50.866;7.944;2024-01-11T02:07:10;51.17;;;47.63;;
16246;SDS011;8231;50.866;7.944;2024-01-11T02:09:40;13.10;;;10.27;;
16246;SDS011;8231;50.866;7.944;2024-01-11T02:12:10;20.93;;;13.27;;
16246;SDS011;8231;50.866;7.944;2024-01-11T02:14:39;24.67;;;11.23;;
16246;SDS011;8231;50.866;7.944;2024-01-11T02:17:08;132.37;;;124.37;;
16246;SDS011;8231;50.866;7.944;2024-01-11T02:19:36;40.23;;;25.30;;
16246;SDS011;8231;50.866;7.944;2024-01-11T02:22:05;256.53;;;239.10;;
16246;SDS011;8231;50.866;7.944;2024-01-11T02:24:41;17.97;;;13.10;;
16246;SDS011;8231;50.866;7.944;2024-01-11T02:27:09;21.13;;;13.30;;
16246;SDS011;8231;50.866;7.944;2024-01-11T02:29:37;69.20;;;64.03;;
16246;SDS011;8231;50.866;7.944;2024-01-11T02:32:06;168.30;;;158.57;;
16246;SDS011;8231;50.866;7.944;2024-01-11T02:34:34;23.33;;;13.40;;
16246;SDS011;8231;50.866;7.944;2024-01-11T02:37:04;78.37;;;72.13;;
16246;SDS011;8231;50.866;7.944;2024-01-11T02:39:32;195.67;;;182.87;;
16246;SDS011;8231;50.866;7.944;2024-01-11T02:42:03;34.60;;;23.80;;
16246;SDS011;8231;50.866;7.944;2024-01-11T02:44:31;19.33;;;13.03;;
16246;SDS011;8231;50.866;7.944;2024-01-11T02:46:59;21.67;;;14.57;;
16246;SDS011;8231;50.866;7.944;2024-01-11T02:49:28;18.70;;;14.57;;
16246;SDS011;8231;50.866;7.944;2024-01-11T02:51:56;28.60;;;16.23;;
16246;SDS011;8231;50.866;7.944;2024-01-11T02:54:24;104.10;;;96.27;;
16246;SDS011;8231;50.866;7.944;2024-01-11T02:56:52;77.00;;;71.03;;
16246;SDS011;8231;50.866;7.944;2024-01-11T02:59:21;24.83;;;15.53;;
16246;SDS011;8231;50.866;7.944;2024-01-11T03:01:50;21.47;;;17.17;;
16246;SDS011;8231;50.866;7.944;2024-01-11T03:04:19;27.33;;;16.13;;
16246;SDS011;8231;50.866;7.944;2024-01-11T03:06:47;22.83;;;16.73;;
16246;SDS011;8231;50.866;7.944;2024-01-11T03:09:15;32.73;;;16.50;;
16246;SDS011;8231;50.866;7.944;2024-01-11T03:11:43;15.90;;;12.33;;
16246;SDS011;8231;50.866;7.944;2024-01-11T03:14:12;17.03;;;13.00;;
16246;SDS011;8231;50.866;7.944;2024-01-11T03:16:41;23.60;;;13.53;;
16246;SDS011;8231;50.866;7.944;2024-01-11T03:19:09;20.47;;;13.87;;
16246;SDS011;8231;50.866;7.944;2024-01-11T03:21:41;21.60;;;13.73;;
16246;SDS011;8231;50.866;7.944;2024-01-11T03:24:10;62.10;;;57.50;;
16246;SDS011;8231;50.866;7.944;2024-01-11T03:26:38;113.50;;;106.57;;
16246;SDS011;8231;50.866;7.944;2024-01-11T03:29:07;25.80;;;15.87;;
16246;SDS011;8231;50.866;7.944;2024-01-11T03:31:35;33.03;;;29.67;;
16246;SDS011;8231;50.866;7.944;2024-01-11T03:34:05;167.93;;;156.27;;
16246;SDS011;8231;50.866;7.944;2024-01-11T03:36:34;72.17;;;67.53;;
16246;SDS011;8231;50.866;7.944;2024-01-11T03:39:02;24.30;;;12.27;;
16246;SDS011;8231;50.866;7.944;2024-01-11T03:41:30;19.43;;;14.83;;
16246;SDS011;8231;50.866;7.944;2024-01-11T03:43:59;22.47;;;11.43;;
16246;SDS011;8231;50.866;7.944;2024-01-11T03:46:27;81.33;;;76.57;;
16246;SDS011;8231;50.866;7.944;2024-01-11T03:48:55;64.87;;;59.83;;
16246;SDS011;8231;50.866;7.944;2024-01-11T03:51:25;65.10;;;60.83;;
16246;SDS011;8231;50.866;7.944;2024-01-11T03:53:54;15.33;;;9.70;;
16246;SDS011;8231;50.866;7.944;2024-01-11T03:56:22;27.37;;;11.27;;
16246;SDS011;8231;50.866;7.944;2024-01-11T03:58:50;20.70;;;18.73;;
16246;SDS011;8231;50.866;7.944;2024-01-11T04:01:18;61.57;;;57.57;;
16246;SDS011;8231;50.866;7.944;2024-01-11T04:03:47;32.97;;;30.20;;
16246;SDS011;8231;50.866;7.944;2024-01-11T04:06:18;19.27;;;10.97;;
16246;SDS011;8231;50.866;7.944;2024-01-11T04:08:50;190.77;;;177.87;;
16246;SDS011;8231;50.866;7.944;2024-01-11T04:11:18;135.87;;;126.27;;
16246;SDS011;8231;50.866;7.944;2024-01-11T04:13:47;24.27;;;10.97;;
16246;SDS011;8231;50.866;7.944;2024-01-11T04:16:15;11.83;;;9.73;;
16246;SDS011;8231;50.866;7.944;2024-01-11T04:18:44;128.87;;;120.23;;
16246;SDS011;8231;50.866;7.944;2024-01-11T04:21:19;15.03;;;11.30;;
16246;SDS011;8231;50.866;7.944;2024-01-11T04:23:48;17.07;;;11.37;;
16246;SDS011;8231;50.866;7.944;2024-01-11T04:26:18;25.83;;;11.03;;
16246;SDS011;8231;50.866;7.944;2024-01-11T04:28:47;15.17;;;9.87;;
16246;SDS011;8231;50.866;7.944;2024-01-11T04:31:15;19.57;;;17.57;;
16246;SDS011;8231;50.866;7.944;2024-01-11T04:33:44;16.63;;;13.40;;
16246;SDS011;8231;50.866;7.944;2024-01-11T04:36:13;13.93;;;10.87;;
16246;SDS011;8231;50.866;7.944;2024-01-11T04:38:42;22.63;;;17.97;;
16246;SDS011;8231;50.866;7.944;2024-01-11T04:41:12;20.43;;;11.10;;
16246;SDS011;8231;50.866;7.944;2024-01-11T04:43:41;47.33;;;43.60;;
16246;SDS011;8231;50.866;7.944;2024-01-11T04:46:14;21.53;;;19.70;;
16246;SDS011;8231;50.866;7.944;2024-01-11T04:48:43;20.27;;;18.27;;
16246;SDS011;8231;50.866;7.944;2024-01-11T04:51:11;15.50;;;11.20;;
16246;SDS011;8231;50.866;7.944;2024-01-11T04:53:41;14.70;;;11.17;;
16246;SDS011;8231;50.866;7.944;2024-01-11T04:56:10;85.87;;;79.67;;
16246;SDS011;8231;50.866;7.944;2024-01-11T04:58:41;94.40;;;86.70;;
16246;SDS011;8231;50.866;7.944;2024-01-11T05:01:11;24.30;;;12.23;;
16246;SDS011;8231;50.866;7.944;2024-01-11T05:03:41;17.70;;;10.97;;
16246;SDS011;8231;50.866;7.944;2024-01-11T05:06:14;13.40;;;10.70;;
16246;SDS011;8231;50.866;7.944;2024-01-11T05:08:43;133.93;;;124.73;;
16246;SDS011;8231;50.866;7.944;2024-01-11T05:11:17;54.03;;;49.60;;
16246;SDS011;8231;50.866;7.944;2024-01-11T05:13:46;44.80;;;40.37;;
16246;SDS011;8231;50.866;7.944;2024-01-11T05:16:17;68.70;;;62.13;;
16246;SDS011;8231;50.866;7.944;2024-01-11T05:18:46;61.87;;;56.37;;
16246;SDS011;8231;50.866;7.944;2024-01-11T05:21:14;41.90;;;37.40;;
16246;SDS011;8231;50.866;7.944;2024-01-11T05:23:43;47.83;;;43.10;;
16246;SDS011;8231;50.866;7.944;2024-01-11T05:26:12;47.60;;;42.70;;
16246;SDS011;8231;50.866;7.944;2024-01-11T05:28:43;49.70;;;44.87;;
16246;SDS011;8231;50.866;7.944;2024-01-11T05:31:12;53.70;;;48.23;;
16246;SDS011;8231;50.866;7.944;2024-01-11T05:33:41;119.60;;;111.57;;
16246;SDS011;8231;50.866;7.944;2024-01-11T05:36:11;136.67;;;127.33;;
16246;SDS011;8231;50.866;7.944;2024-01-11T05:38:39;108.63;;;101.30;;
16246;SDS011;8231;50.866;7.944;2024-01-11T05:41:07;18.63;;;14.03;;
16246;SDS011;8231;50.866;7.944;2024-01-11T05:43:37;124.27;;;116.30;;
16246;SDS011;8231;50.866;7.944;2024-01-11T05:46:06;17.50;;;11.73;;
16246;SDS011;8231;50.866;7.944;2024-01-11T05:48:35;23.83;;;11.77;;
16246;SDS011;8231;50.866;7.944;2024-01-11T05:51:04;23.63;;;12.30;;
16246;SDS011;8231;50.866;7.944;2024-01-11T05:53:32;22.50;;;20.03;;
16246;SDS011;8231;50.866;7.944;2024-01-11T05:56:07;138.70;;;128.93;;
16246;SDS011;8231;50.866;7.944;2024-01-11T05:58:36;53.00;;;47.80;;
16246;SDS011;8231;50.866;7.944;2024-01-11T06:01:06;88.50;;;81.13;;
16246;SDS011;8231;50.866;7.944;2024-01-11T06:03:35;38.97;;;35.10;;
16246;SDS011;8231;50.866;7.944;2024-01-11T06:06:04;48.80;;;45.37;;
16246;SDS011;8231;50.866;7.944;2024-01-11T06:08:33;19.43;;;13.20;;
16246;SDS011;8231;50.866;7.944;2024-01-11T06:11:01;20.40;;;12.93;;
16246;SDS011;8231;50.866;7.944;2024-01-11T06:13:30;18.17;;;12.27;;
16246;SDS011;8231;50.866;7.944;2024-01-11T06:15:58;15.40;;;12.13;;
16246;SDS011;8231;50.866;7.944;2024-01-11T06:18:28;119.90;;;111.73;;
16246;SDS011;8231;50.866;7.944;2024-01-11T06:20:57;17.13;;;11.23;;
16246;SDS011;8231;50.866;7.944;2024-01-11T06:23:25;16.70;;;10.70;;
16246;SDS011;8231;50.866;7.944;2024-01-11T06:25:54;102.43;;;95.00;;
16246;SDS011;8231;50.866;7.944;2024-01-11T06:28:22;27.70;;;17.67;;
16246;SDS011;8231;50.866;7.944;2024-01-11T06:30:50;22.80;;;19.80;;
16246;SDS011;8231;50.866;7.944;2024-01-11T06:33:18;26.73;;;14.83;;
16246;SDS011;8231;50.866;7.944;2024-01-11T06:35:49;15.40;;;9.30;;
16246;SDS011;8231;50.866;7.944;2024-01-11T06:38:17;12.80;;;8.80;;
16246;SDS011;8231;50.866;7.944;2024-01-11T06:40:45;15.33;;;10.30;;
16246;SDS011;8231;50.866;7.944;2024-01-11T06:43:13;17.40;;;12.80;;
16246;SDS011;8231;50.866;7.944;2024-01-11T06:45:42;16.37;;;12.37;;
16246;SDS011;8231;50.866;7.944;2024-01-11T06:48:10;15.63;;;9.57;;
16246;SDS011;8231;50.866;7.944;2024-01-11T06:50:38;25.03;;;11.00;;
16246;SDS011;8231;50.866;7.944;2024-01-11T06:53:09;18.83;;;16.37;;
16246;SDS011;8231;50.866;7.944;2024-01-11T06:55:37;138.60;;;130.50;;
16246;SDS011;8231;50.866;7.944;2024-01-11T06:58:07;20.03;;;11.70;;
16246;SDS011;8231;50.866;7.944;2024-01-11T07:00:35;109.93;;;102.70;;
16246;SDS011;8231;50.866;7.944;2024-01-11T07:03:04;62.17;;;57.90;;
16246;SDS011;8231;50.866;7.944;2024-01-11T07:05:32;17.07;;;15.33;;
16246;SDS011;8231;50.866;7.944;2024-01-11T07:08:00;116.90;;;108.00;;
16246;SDS011;8231;50.866;7.944;2024-01-11T07:10:30;14.93;;;10.23;;
16246;SDS011;8231;50.866;7.944;2024-01-11T07:12:58;18.90;;;11.83;;
16246;SDS011;8231;50.866;7.944;2024-01-11T07:15:26;12.83;;;9.30;;
16246;SDS011;8231;50.866;7.944;2024-01-11T07:17:55;13.73;;;9.47;;
16246;SDS011;8231;50.866;7.944;2024-01-11T07:20:23;21.47;;;11.40;;
16246;SDS011;8231;50.866;7.944;2024-01-11T07:22:52;14.10;;;9.90;;
16246;SDS011;8231;50.866;7.944;2024-01-11T07:25:20;16.30;;;9.23;;
16246;SDS011;8231;50.866;7.944;2024-01-11T07:27:49;126.47;;;118.63;;
16246;SDS011;8231;50.866;7.944;2024-01-11T07:30:18;84.60;;;79.20;;
16246;SDS011;8231;50.866;7.944;2024-01-11T07:32:46;16.07;;;11.63;;
16246;SDS011;8231;50.866;7.944;2024-01-11T07:35:14;20.73;;;13.57;;
16246;SDS011;8231;50.866;7.944;2024-01-11T07:37:44;21.27;;;11.17;;
16246;SDS011;8231;50.866;7.944;2024-01-11T07:40:13;152.73;;;143.50;;
16246;SDS011;8231;50.866;7.944;2024-01-11T07:42:42;59.23;;;54.60;;
16246;SDS011;8231;50.866;7.944;2024-01-11T07:45:11;42.53;;;38.50;;
16246;SDS011;8231;50.866;7.944;2024-01-11T07:47:40;54.03;;;48.63;;
16246;SDS011;8231;50.866;7.944;2024-01-11T07:50:08;46.27;;;41.90;;
16246;SDS011;8231;50.866;7.944;2024-01-11T07:52:37;38.00;;;33.70;;
16246;SDS011;8231;50.866;7.944;2024-01-11T07:55:08;43.37;;;39.10;;
16246;SDS011;8231;50.866;7.944;2024-01-11T07:57:39;41.27;;;36.93;;
16246;SDS011;8231;50.866;7.944;2024-01-11T08:00:08;51.83;;;46.57;;
16246;SDS011;8231;50.866;7.944;2024-01-11T08:02:41;46.27;;;41.77;;
16246;SDS011;8231;50.866;7.944;2024-01-11T08:05:09;48.30;;;43.53;;
16246;SDS011;8231;50.866;7.944;2024-01-11T08:07:39;44.20;;;40.00;;
16246;SDS011;8231;50.866;7.944;2024-01-11T08:10:08;43.33;;;39.23;;
16246;SDS011;8231;50.866;7.944;2024-01-11T08:12:36;36.87;;;33.20;;
16246;SDS011;8231;50.866;7.944;2024-01-11T08:15:05;70.03;;;64.00;;
16246;SDS011;8231;50.866;7.944;2024-01-11T08:17:33;112.40;;;104.70;;
16246;SDS011;8231;50.866;7.944;2024-01-11T08:20:06;101.17;;;94.63;;
16246;SDS011;8231;50.866;7.944;2024-01-11T08:22:36;32.47;;;29.53;;
16246;SDS011;8231;50.866;7.944;2024-01-11T08:25:05;74.97;;;69.63;;
16246;SDS011;8231;50.866;7.944;2024-01-11T08:27:34;14.03;;;11.43;;
16246;SDS011;8231;50.866;7.944;2024-01-11T08:30:03;15.17;;;11.40;;
16246;SDS011;8231;50.866;7.944;2024-01-11T08:32:33;11.53;;;10.40;;
16246;SDS011;8231;50.866;7.944;2024-01-11T08:35:08;57.00;;;52.90;;
16246;SDS011;8231;50.866;7.944;2024-01-11T08:37:38;83.90;;;78.40;;
16246;SDS011;8231;50.866;7.944;2024-01-11T08:40:06;186.97;;;176.23;;
16246;SDS011;8231;50.866;7.944;2024-01-11T08:42:37;22.80;;;19.70;;
16246;SDS011;8231;50.866;7.944;2024-01-11T08:45:07;44.27;;;40.80;;
16246;SDS011;8231;50.866;7.944;2024-01-11T08:47:36;64.33;;;60.00;;
16246;SDS011;8231;50.866;7.944;2024-01-11T08:50:07;13.60;;;10.50;;
16246;SDS011;8231;50.866;7.944;2024-01-11T08:52:39;109.67;;;103.33;;
16246;SDS011;8231;50.866;7.944;2024-01-11T08:55:08;62.37;;;57.60;;
16246;SDS011;8231;50.866;7.944;2024-01-11T08:57:39;55.37;;;51.93;;
16246;SDS011;8231;50.866;7.944;2024-01-11T09:00:08;44.90;;;42.03;;
16246;SDS011;8231;50.866;7.944;2024-01-11T09:02:37;17.93;;;10.63;;
16246;SDS011;8231;50.866;7.944;2024-01-11T09:05:07;69.33;;;64.80;;
16246;SDS011;8231;50.866;7.944;2024-01-11T09:07:35;14.17;;;11.73;;
16246;SDS011;8231;50.866;7.944;2024-01-11T09:10:04;16.03;;;11.77;;
16246;SDS011;8231;50.866;7.944;2024-01-11T09:12:35;23.10;;;21.23;;
16246;SDS011;8231;50.866;7.944;2024-01-11T09:15:03;16.03;;;14.20;;
16246;SDS011;8231;50.866;7.944;2024-01-11T09:17:32;11.87;;;9.13;;
16246;SDS011;8231;50.866;7.944;2024-01-11T09:20:00;13.30;;;10.10;;
16246;SDS011;8231;50.866;7.944;2024-01-11T09:22:30;111.63;;;104.40;;
16246;SDS011;8231;50.866;7.944;2024-01-11T09:24:59;11.70;;;8.70;;
16246;SDS011;8231;50.866;7.944;2024-01-11T09:27:27;95.77;;;89.93;;
16246;SDS011;8231;50.866;7.944;2024-01-11T09:29:55;103.50;;;96.63;;
16246;SDS011;8231;50.866;7.944;2024-01-11T09:32:23;295.57;;;277.77;;
16246;SDS011;8231;50.866;7.944;2024-01-11T09:34:52;14.53;;;10.30;;
16246;SDS011;8231;50.866;7.944;2024-01-11T09:37:20;42.37;;;39.40;;
16246;SDS011;8231;50.866;7.944;2024-01-11T09:39:50;14.10;;;12.70;;
16246;SDS011;8231;50.866;7.944;2024-01-11T09:42:19;95.10;;;89.00;;
16246;SDS011;8231;50.866;7.944;2024-01-11T09:44:47;75.87;;;70.57;;
16246;SDS011;8231;50.866;7.944;2024-01-11T09:47:15;111.73;;;105.07;;
16246;SDS011;8231;50.866;7.944;2024-01-11T09:49:45;55.40;;;52.37;;
16246;SDS011;8231;50.866;7.944;2024-01-11T09:52:17;114.93;;;108.00;;
16246;SDS011;8231;50.866;7.944;2024-01-11T09:54:48;201.87;;;190.67;;
16246;SDS011;8231;50.866;7.944;2024-01-11T09:57:20;150.97;;;141.97;;
16246;SDS011;8231;50.866;7.944;2024-01-11T09:59:53;30.40;;;28.23;;
16246;SDS011;8231;50.866;7.944;2024-01-11T10:02:22;330.27;;;311.57;;
16246;SDS011;8231;50.866;7.944;2024-01-11T10:04:53;128.20;;;119.63;;
16246;SDS011;8231;50.866;7.944;2024-01-11T10:07:21;40.60;;;37.97;;
16246;SDS011;8231;50.866;7.944;2024-01-11T10:09:51;36.93;;;34.40;;
16246;SDS011;8231;50.866;7.944;2024-01-11T10:12:21;111.23;;;104.67;;
16246;SDS011;8231;50.866;7.944;2024-01-11T10:14:51;22.10;;;20.27;;
16246;SDS011;8231;50.866;7.944;2024-01-11T10:17:20;115.27;;;107.87;;
16246;SDS011;8231;50.866;7.944;2024-01-11T10:19:52;234.77;;;220.50;;
16246;SDS011;8231;50.866;7.944;2024-01-11T10:22:22;146.67;;;139.00;;
16246;SDS011;8231;50.866;7.944;2024-01-11T10:25:04;34.10;;;32.10;;
16246;SDS011;8231;50.866;7.944;2024-01-11T10:27:39;116.07;;;109.73;;
16246;SDS011;8231;50.866;7.944;2024-01-11T10:30:09;38.97;;;36.07;;
16246;SDS011;8231;50.866;7.944;2024-01-11T10:32:40;8.23;;;5.87;;
16246;SDS011;8231;50.866;7.944;2024-01-11T10:35:08;9.43;;;7.60;;
16246;SDS011;8231;50.866;7.944;2024-01-11T10:37:37;206.77;;;196.87;;
16246;SDS011;8231;50.866;7.944;2024-01-11T10:40:07;113.87;;;108.07;;
16246;SDS011;8231;50.866;7.944;2024-01-11T10:42:41;98.60;;;93.60;;
16246;SDS011;8231;50.866;7.944;2024-01-11T10:45:13;7.23;;;6.50;;
16246;SDS011;8231;50.866;7.944;2024-01-11T10:47:47;147.67;;;140.23;;
16246;SDS011;8231;50.866;7.944;2024-01-11T10:50:19;111.17;;;104.53;;
16246;SDS011;8231;50.866;7.944;2024-01-11T10:52:53;49.33;;;46.30;;
16246;SDS011;8231;50.866;7.944;2024-01-11T10:55:30;58.27;;;54.10;;
16246;SDS011;8231;50.866;7.944;2024-01-11T10:58:02;78.20;;;73.40;;
16246;SDS011;8231;50.866;7.944;2024-01-11T11:00:31;165.80;;;155.47;;
16246;SDS011;8231;50.866;7.944;2024-01-11T11:03:00;134.67;;;127.63;;
16246;SDS011;8231;50.866;7.944;2024-01-11T11:05:34;111.10;;;105.50;;
16246;SDS011;8231;50.866;7.944;2024-01-11T11:08:03;97.53;;;92.10;;
16246;SDS011;8231;50.866;7.944;2024-01-11T11:10:33;19.97;;;18.63;;
16246;SDS011;8231;50.866;7.944;2024-01-11T11:13:03;102.33;;;96.13;;
16246;SDS011;8231;50.866;7.944;2024-01-11T11:15:33;84.23;;;79.40;;
16246;SDS011;8231;50.866;7.944;2024-01-11T11:18:04;12.13;;;9.77;;
16246;SDS011;8231;50.866;7.944;2024-01-11T11:20:34;80.40;;;76.20;;
16246;SDS011;8231;50.866;7.944;2024-01-11T11:23:05;83.33;;;78.97;;
16246;SDS011;8231;50.866;7.944;2024-01-11T11:25:34;90.70;;;86.20;;
16246;SDS011;8231;50.866;7.944;2024-01-11T11:28:04;154.07;;;146.37;;
16246;SDS011;8231;50.866;7.944;2024-01-11T11:30:32;72.40;;;68.43;;
16246;SDS011;8231;50.866;7.944;2024-01-11T11:33:08;121.63;;;115.33;;
16246;SDS011;8231;50.866;7.944;2024-01-11T11:35:37;173.97;;;165.10;;
16246;SDS011;8231;50.866;7.944;2024-01-11T11:38:06;165.00;;;157.17;;
16246;SDS011;8231;50.866;7.944;2024-01-11T11:40:36;231.57;;;219.50;;
16246;SDS011;8231;50.866;7.944;2024-01-11T11:43:07;7.13;;;6.37;;
16246;SDS011;8231;50.866;7.944;2024-01-11T11:45:36;10.17;;;7.60;;
16246;SDS011;8231;50.866;7.944;2024-01-11T11:51:07;163.77;;;156.00;;
16246;SDS011;8231;50.866;7.944;2024-01-11T11:53:37;239.27;;;229.00;;
16246;SDS011;8231;50.866;7.944;2024-01-11T11:56:07;7.67;;;6.60;;
16246;SDS011;8231;50.866;7.944;2024-01-11T11:58:37;266.77;;;251.83;;
16246;SDS011;8231;50.866;7.944;2024-01-11T12:01:06;580.23;;;551.80;;
16246;SDS011;8231;50.866;7.944;2024-01-11T12:03:36;11.00;;;9.83;;
16246;SDS011;8231;50.866;7.944;2024-01-11T12:06:06;8.83;;;7.93;;
16246;SDS011;8231;50.866;7.944;2024-01-11T12:08:36;10.30;;;8.07;;
16246;SDS011;8231;50.866;7.944;2024-01-11T12:11:07;10.73;;;9.63;;
16246;SDS011;8231;50.866;7.944;2024-01-11T12:13:36;12.77;;;8.47;;
16246;SDS011;8231;50.866;7.944;2024-01-11T12:16:05;12.47;;;8.67;;
16246;SDS011;8231;50.866;7.944;2024-01-11T12:18:33;14.17;;;9.77;;
16246;SDS011;8231;50.866;7.944;2024-01-11T12:21:02;11.93;;;9.73;;
16246;SDS011;8231;50.866;7.944;2024-01-11T12:23:30;11.30;;;9.63;;
16246;SDS011;8231;50.866;7.944;2024-01-11T12:26:00;11.43;;;9.70;;
16246;SDS011;8231;50.866;7.944;2024-01-11T12:28:30;13.30;;;9.67;;
16246;SDS011;8231;50.866;7.944;2024-01-11T12:31:00;12.53;;;9.97;;
16246;SDS011;8231;50.866;7.944;2024-01-11T12:33:30;12.00;;;10.20;;
16246;SDS011;8231;50.866;7.944;2024-01-11T12:36:03;13.82;;;9.63;;
16246;SDS011;8231;50.866;7.944;2024-01-11T12:38:33;11.00;;;9.43;;
16246;SDS011;8231;50.866;7.944;2024-01-11T12:41:01;11.43;;;9.27;;
16246;SDS011;8231;50.866;7.944;2024-01-11T12:43:30;9.60;;;8.63;;
16246;SDS011;8231;50.866;7.944;2024-01-11T12:46:01;9.48;;;8.38;;
16246;SDS011;8231;50.866;7.944;2024-01-11T12:48:30;8.68;;;7.78;;
16246;SDS011;8231;50.866;7.944;2024-01-11T12:50:58;12.07;;;9.10;;
16246;SDS011;8231;50.866;7.944;2024-01-11T12:53:44;13.27;;;8.95;;
16246;SDS011;8231;50.866;7.944;2024-01-11T12:56:14;18.83;;;17.27;;
16246;SDS011;8231;50.866;7.944;2024-01-11T12:58:43;893.22;;;826.88;;
16246;SDS011;8231;50.866;7.944;2024-01-11T13:01:14;517.88;;;478.70;;
16246;SDS011;8231;50.866;7.944;2024-01-11T13:03:46;967.22;;;901.53;;
16246;SDS011;8231;50.866;7.944;2024-01-11T13:06:15;935.70;;;871.95;;
16246;SDS011;8231;50.866;7.944;2024-01-11T13:08:44;831.08;;;770.45;;
16246;SDS011;8231;50.866;7.944;2024-01-11T13:11:12;984.63;;;916.03;;
16246;SDS011;8231;50.866;7.944;2024-01-11T13:13:44;703.50;;;656.20;;
16246;SDS011;8231;50.866;7.944;2024-01-11T13:16:15;14.83;;;13.33;;
16246;SDS011;8231;50.866;7.944;2024-01-11T13:18:45;11.37;;;9.67;;
16246;SDS011;8231;50.866;7.944;2024-01-11T13:21:14;11.60;;;10.40;;
16246;SDS011;8231;50.866;7.944;2024-01-11T13:23:42;11.73;;;10.27;;
16246;SDS011;8231;50.866;7.944;2024-01-11T13:26:10;14.40;;;12.87;;
16246;SDS011;8231;50.866;7.944;2024-01-11T13:28:39;16.27;;;11.77;;
16246;SDS011;8231;50.866;7.944;2024-01-11T13:31:07;14.70;;;11.70;;
16246;SDS011;8231;50.866;7.944;2024-01-11T13:33:38;14.03;;;11.00;;
16246;SDS011;8231;50.866;7.944;2024-01-11T13:36:07;15.50;;;13.90;;
16246;SDS011;8231;50.866;7.944;2024-01-11T13:38:36;14.03;;;11.60;;
16246;SDS011;8231;50.866;7.944;2024-01-11T13:41:04;15.27;;;10.87;;
16246;SDS011;8231;50.866;7.944;2024-01-11T13:43:34;12.70;;;10.87;;
16246;SDS011;8231;50.866;7.944;2024-01-11T13:46:03;13.87;;;12.10;;
16246;SDS011;8231;50.866;7.944;2024-01-11T13:48:31;13.67;;;11.17;;
16246;SDS011;8231;50.866;7.944;2024-01-11T13:51:01;12.17;;;10.07;;
16246;SDS011;8231;50.866;7.944;2024-01-11T13:53:30;14.40;;;11.50;;
16246;SDS011;8231;50.866;7.944;2024-01-11T13:55:59;19.10;;;15.77;;
16246;SDS011;8231;50.866;7.944;2024-01-11T13:58:28;16.58;;;15.00;;
16246;SDS011;8231;50.866;7.944;2024-01-11T14:00:57;16.73;;;15.17;;
16246;SDS011;8231;50.866;7.944;2024-01-11T14:03:25;42.10;;;38.15;;
16246;SDS011;8231;50.866;7.944;2024-01-11T14:05:53;16.75;;;15.02;;
16246;SDS011;8231;50.866;7.944;2024-01-11T14:08:24;12.38;;;11.18;;
16246;SDS011;8231;50.866;7.944;2024-01-11T14:10:52;11.80;;;10.70;;
16246;SDS011;8231;50.866;7.944;2024-01-11T14:13:21;20.35;;;18.73;;
16246;SDS011;8231;50.866;7.944;2024-01-11T14:15:49;11.05;;;9.95;;
16246;SDS011;8231;50.866;7.944;2024-01-11T14:18:18;24.38;;;16.73;;
16246;SDS011;8231;50.866;7.944;2024-01-11T14:20:46;30.60;;;21.33;;
16246;SDS011;8231;50.866;7.944;2024-01-11T14:23:15;16.02;;;14.43;;
16246;SDS011;8231;50.866;7.944;2024-01-11T14:25:45;10.63;;;9.48;;
16246;SDS011;8231;50.866;7.944;2024-01-11T14:28:13;25.10;;;22.67;;
16246;SDS011;8231;50.866;7.944;2024-01-11T14:30:41;28.27;;;25.58;;
16246;SDS011;8231;50.866;7.944;2024-01-11T14:33:11;26.65;;;24.40;;
16246;SDS011;8231;50.866;7.944;2024-01-11T14:35:39;27.95;;;25.33;;
16246;SDS011;8231;50.866;7.944;2024-01-11T14:38:07;20.67;;;18.77;;
16246;SDS011;8231;50.866;7.944;2024-01-11T14:40:36;30.10;;;27.75;;
16246;SDS011;8231;50.866;7.944;2024-01-11T14:43:06;18.08;;;16.40;;
16246;SDS011;8231;50.866;7.944;2024-01-11T14:45:35;31.63;;;28.23;;